Time;durP1;ratioP1;P1;durP2;ratioP2;P2;SDS_P1;SDS_P2;PMS_P1;PMS_P2;Temp;Humidity;BMP_temperature;BMP_pressure;BME280_temperature;BME280_humidity;BME280_pressure;Samples;Min_cycle;Max_cycle;Signal;HPM_P1;HPM_P2
2022/03/22 00:00:49;;;;;;;;;18.00;18.00;;;;;14.95;47.84;101978.31;5057101;28;45397;-60
2022/03/22 00:03:15;;;;;;;;;15.33;14.67;;;;;14.92;47.59;101975.78;5065442;28;45469;-63
2022/03/22 00:05:42;;;;;;;;;20.67;20.00;;;;;14.91;47.89;101981.97;5077021;27;46069;-63
2022/03/22 00:08:09;;;;;;;;;23.67;22.00;;;;;14.89;47.86;101975.88;5073464;28;45560;-61
2022/03/22 00:10:36;;;;;;;;;19.33;18.00;;;;;14.87;47.46;101985.66;5077103;28;45513;-61
2022/03/22 00:13:03;;;;;;;;;20.33;17.33;;;;;14.85;47.98;101990.13;5059150;28;45643;-62
2022/03/22 00:15:29;;;;;;;;;20.33;20.33;;;;;14.83;47.06;101989.28;5060121;28;45481;-63
2022/03/22 00:17:54;;;;;;;;;234.25;216.75;;;;;14.80;47.20;101991.16;5076845;28;45460;-61
2022/03/22 00:20:20;;;;;;;;;60.25;50.25;;;;;14.82;47.63;101985.78;5074965;27;45366;-66
2022/03/22 00:22:45;;;;;;;;;58.50;47.75;;;;;14.83;48.35;101990.19;5056668;28;45715;-63
2022/03/22 00:25:11;;;;;;;;;20.00;20.00;;;;;14.86;48.13;101998.03;5063441;28;45970;-62
2022/03/22 00:27:56;;;;;;;;;24.00;19.00;;;;;14.86;48.32;101991.88;5074547;27;45452;-62
2022/03/22 00:30:27;;;;;;;;;20.67;19.00;;;;;14.83;47.25;101994.59;5075459;27;45384;-62
2022/03/22 00:32:55;;;;;;;;;15.33;15.33;;;;;14.83;47.33;101999.88;5076403;28;45460;-65
2022/03/22 00:35:24;;;;;;;;;21.00;19.00;;;;;14.82;47.53;101999.03;5058957;27;46243;-62
2022/03/22 00:37:52;;;;;;;;;19.33;18.67;;;;;14.78;47.60;102003.56;5056459;28;45448;-62
2022/03/22 00:40:18;;;;;;;;;24.67;22.67;;;;;14.75;47.51;101995.72;5056524;28;45431;-62
2022/03/22 00:42:46;;;;;;;;;16.33;16.33;;;;;14.72;46.95;102001.09;5068123;28;45402;-62
2022/03/22 00:45:13;;;;;;;;;17.33;17.33;;;;;14.69;47.25;102002.97;5076436;28;45723;-63
2022/03/22 00:47:38;;;;;;;;;20.67;18.00;;;;;14.61;46.72;101995.22;5068322;28;45528;-62
2022/03/22 00:50:04;;;;;;;;;18.33;18.33;;;;;14.61;47.46;102003.19;5056156;28;45671;-62
2022/03/22 00:52:30;;;;;;;;;24.67;23.00;;;;;14.59;46.94;102007.69;5056479;28;45643;-62
2022/03/22 00:54:55;;;;;;;;;27.00;21.33;;;;;14.56;47.22;102003.34;5056467;28;46060;-62
2022/03/22 00:57:20;;;;;;;;;22.67;19.67;;;;;14.53;46.87;102000.78;5064094;28;45504;-62
2022/03/22 01:02:31;;;;;;;;;17.67;17.67;;;;;14.46;46.85;101996.53;5057098;28;45600;-64
2022/03/22 01:04:56;;;;;;;;;18.00;18.00;;;;;14.44;46.97;102002.78;5067530;28;46104;-63
2022/03/22 01:07:22;;;;;;;;;45.00;40.00;;;;;14.42;47.49;101996.66;5074146;27;45556;-62
2022/03/22 01:09:47;;;;;;;;;191.00;185.00;;;;;14.40;47.50;102001.13;5076200;27;45449;-59
2022/03/22 01:12:13;;;;;;;;;57.50;47.50;;;;;14.41;47.57;101997.59;5070849;27;45573;-63
2022/03/22 01:14:38;;;;;;;;;20.00;20.00;;;;;14.43;47.35;102003.72;5055767;28;46713;-64
2022/03/22 01:17:06;;;;;;;;;20.67;17.33;;;;;14.41;46.67;101995.81;5069416;28;45385;-64
2022/03/22 01:19:32;;;;;;;;;18.33;18.33;;;;;14.38;46.13;101998.53;5074256;27;45312;-64
2022/03/22 01:21:59;;;;;;;;;22.00;20.00;;;;;14.33;46.25;101990.72;5076245;28;45553;-62
2022/03/22 01:24:25;;;;;;;;;21.33;21.33;;;;;14.30;46.53;101985.53;5076227;28;45458;-62
2022/03/22 01:26:51;;;;;;;;;19.67;19.67;;;;;14.30;46.22;101993.47;5068659;28;45592;-62
2022/03/22 01:29:16;;;;;;;;;24.67;24.00;;;;;14.28;46.66;101990.00;5062900;28;45524;-63
2022/03/22 01:31:42;;;;;;;;;19.67;19.67;;;;;14.28;46.31;101992.63;5072870;28;45406;-64
2022/03/22 01:34:08;;;;;;;;;26.33;21.33;;;;;14.27;46.37;101988.25;5063319;28;46540;-64
2022/03/22 01:36:33;;;;;;;;;21.67;19.33;;;;;14.27;46.62;101988.25;5066168;28;45590;-65
2022/03/22 01:38:59;;;;;;;;;20.67;19.33;;;;;14.23;46.34;101978.66;5069919;28;45530;-64
2022/03/22 01:41:24;;;;;;;;;22.33;18.67;;;;;14.27;46.11;101988.25;5072003;27;45728;-63
2022/03/22 01:43:50;;;;;;;;;21.67;21.33;;;;;14.27;46.50;101990.91;5056017;28;45481;-63
2022/03/22 01:46:22;;;;;;;;;18.67;18.67;;;;;14.27;46.13;101992.69;5064161;28;45529;-63
2022/03/22 01:48:48;;;;;;;;;21.33;16.00;;;;;14.25;46.36;101984.78;5058678;27;45408;-63
2022/03/22 01:51:13;;;;;;;;;22.67;19.67;;;;;14.23;46.26;101985.75;5061212;28;45619;-63
2022/03/22 01:53:40;;;;;;;;;24.67;20.67;;;;;14.21;46.31;101984.91;5073204;28;46200;-63
2022/03/22 01:56:06;;;;;;;;;25.00;21.33;;;;;14.17;46.64;101978.84;5067089;27;45605;-64
2022/03/22 01:58:32;;;;;;;;;17.67;17.67;;;;;14.15;46.29;101984.16;5074249;28;45443;-64
2022/03/22 02:05:51;;;;;;;;;22.33;19.67;;;;;14.13;46.40;101978.06;5069785;27;45466;-64
2022/03/22 02:06:33;;;;;;;;;21.33;21.33;;;;;14.08;46.59;101981.75;5056882;28;45602;-63
2022/03/22 02:08:59;;;;;;;;;24.67;23.67;;;;;14.06;46.73;101978.28;5055283;28;45406;-63
2022/03/22 02:11:25;;;;;;;;;25.00;23.33;;;;;14.04;46.54;101974.81;5055983;28;45506;-63
2022/03/22 02:13:50;;;;;;;;;18.67;18.67;;;;;14.03;46.87;101983.66;5058105;28;45823;-63
2022/03/22 02:16:16;;;;;;;;;23.67;23.67;;;;;14.04;46.68;101980.09;5067106;28;45441;-63
2022/03/22 02:18:42;;;;;;;;;24.00;21.67;;;;;14.04;46.59;101977.44;5069094;27;45414;-63
2022/03/22 02:21:12;;;;;;;;;21.33;19.33;;;;;14.00;46.01;101971.38;5079105;27;45446;-63
2022/03/22 02:23:53;;;;;;;;;19.67;18.67;;;;;14.01;46.12;101975.75;5076775;27;45495;-63
2022/03/22 02:26:20;;;;;;;;;23.00;21.33;;;;;14.01;46.07;101985.47;5078778;28;45434;-64
2022/03/22 02:28:46;;;;;;;;;24.67;22.67;;;;;13.96;45.93;101988.25;5079087;27;45537;-63
2022/03/22 02:31:13;;;;;;;;;18.33;18.33;;;;;13.92;45.63;101986.59;5060911;28;45477;-64
2022/03/22 02:33:45;;;;;;;;;19.00;18.33;;;;;13.88;45.75;101984.94;5058535;28;45411;-63
2022/03/22 02:36:11;;;;;;;;;19.33;19.33;;;;;13.84;45.69;101986.81;5058506;28;45642;-63
2022/03/22 02:38:36;;;;;;;;;19.67;18.00;;;;;13.81;45.75;101986.88;5061281;28;45515;-63
2022/03/22 02:41:02;;;;;;;;;19.67;19.67;;;;;13.80;45.89;101981.63;5072137;28;45549;-64
2022/03/22 02:43:27;;;;;;;;;21.00;20.00;;;;;13.80;45.97;101987.78;5058390;28;45483;-63
2022/03/22 02:45:53;;;;;;;;;20.33;20.33;;;;;13.78;45.86;101983.44;5058611;28;45360;-64
2022/03/22 02:48:18;;;;;;;;;21.33;20.00;;;;;13.74;45.43;101979.16;5058704;28;45395;-63
2022/03/22 02:50:44;;;;;;;;;20.33;19.33;;;;;13.70;45.83;101983.63;5068748;28;45651;-63
2022/03/22 02:53:09;;;;;;;;;22.00;20.67;;;;;13.69;45.99;101984.56;5058195;28;45975;-63
2022/03/22 02:55:36;;;;;;;;;18.67;18.67;;;;;13.69;45.84;101987.19;5058330;28;45525;-63
2022/03/22 02:58:02;;;;;;;;;20.33;20.33;;;;;13.65;45.35;101982.91;5063994;28;45419;-64
2022/03/22 03:00:27;;;;;;;;;19.00;17.33;;;;;13.64;45.11;101982.03;5060303;28;45544;-64
2022/03/22 03:02:53;;;;;;;;;21.67;18.67;;;;;13.61;45.12;101982.09;5058249;28;46270;-63
2022/03/22 03:05:20;;;;;;;;;20.33;19.00;;;;;13.57;45.32;101980.47;5066915;28;45377;-64
2022/03/22 03:07:46;;;;;;;;;24.00;21.00;;;;;13.55;44.96;101986.69;5078510;28;45539;-63
2022/03/22 03:10:11;;;;;;;;;21.67;18.67;;;;;13.48;45.21;101989.47;5065938;28;45640;-63
2022/03/22 03:12:37;;;;;;;;;22.67;20.00;;;;;13.47;45.36;101998.31;5058141;28;45500;-64
2022/03/22 03:15:04;;;;;;;;;18.33;18.33;;;;;13.45;45.53;101989.56;5062263;28;45414;-63
2022/03/22 03:17:29;;;;;;;;;21.00;19.50;;;;;13.42;45.36;102002.84;5075169;27;45496;-64
2022/03/22 03:19:55;;;;;;;;;20.67;19.00;;;;;13.42;45.93;101994.06;5078079;28;45622;-64
2022/03/22 03:22:20;;;;;;;;;23.00;19.67;;;;;13.41;45.61;101997.63;5077897;27;45392;-64
2022/03/22 03:24:46;;;;;;;;;21.00;19.67;;;;;13.39;45.00;102002.94;5070988;28;45505;-63
2022/03/22 03:27:11;;;;;;;;;25.00;23.33;;;;;13.39;45.29;101996.78;5058078;28;45428;-64
2022/03/22 03:29:36;;;;;;;;;21.33;21.33;;;;;13.37;45.80;101994.16;5057833;28;45527;-63
2022/03/22 03:32:02;;;;;;;;;22.00;21.33;;;;;13.36;45.59;102003.00;5063371;28;45435;-64
2022/03/22 03:34:27;;;;;;;;;20.33;20.00;;;;;13.36;45.48;101999.50;5076510;28;45367;-64
2022/03/22 03:36:53;;;;;;;;;22.33;21.33;;;;;13.36;45.11;102002.16;5068875;28;45508;-65
2022/03/22 03:39:18;;;;;;;;;11.33;8.33;;;;;13.35;45.77;101996.00;5060873;27;45619;-63
2022/03/22 03:41:57;;;;;;;;;20.67;20.67;;;;;13.35;45.84;101997.75;5077273;27;46281;-65
2022/03/22 03:47:19;;;;;;;;;23.33;21.33;;;;;13.29;45.37;102006.69;5057961;28;45436;-67
2022/03/22 03:49:45;;;;;;;;;25.00;20.00;;;;;13.24;45.64;101997.97;5063203;28;45467;-65
2022/03/22 03:52:19;;;;;;;;;21.00;21.00;;;;;13.21;45.41;102003.34;5057308;28;45398;-64
2022/03/22 03:54:45;;;;;;;;;23.00;22.67;;;;;13.21;45.64;101995.41;5066503;28;45513;-63
2022/03/22 03:57:11;;;;;;;;;23.33;22.00;;;;;13.19;45.47;102005.13;5057139;28;45479;-64
2022/03/22 03:59:38;;;;;;;;;20.33;19.00;;;;;13.20;46.14;102009.53;5064712;28;45344;-62
2022/03/22 04:02:06;;;;;;;;;21.33;17.67;;;;;13.20;45.88;102009.53;5077194;28;48438;-65
2022/03/22 04:04:32;;;;;;;;;19.33;19.33;;;;;13.17;45.95;102004.31;5077258;28;45369;-63
2022/03/22 04:06:57;;;;;;;;;19.00;18.00;;;;;13.17;45.79;102006.97;5075866;28;45419;-63
2022/03/22 04:09:23;;;;;;;;;17.75;16.75;;;;;13.12;45.70;102011.50;5076547;27;45370;-64
2022/03/22 04:11:49;;;;;;;;;21.67;20.00;;;;;13.13;45.55;102016.72;5075476;28;45384;-64
2022/03/22 04:14:14;;;;;;;;;20.67;19.67;;;;;13.11;46.12;102012.38;5057100;27;45563;-64
2022/03/22 04:16:41;;;;;;;;;23.00;21.00;;;;;13.11;46.05;102018.56;5056946;28;45375;-64
2022/03/22 04:19:07;;;;;;;;;24.33;23.67;;;;;13.11;46.17;102030.88;5057277;28;45349;-64
2022/03/22 04:21:37;;;;;;;;;21.67;18.67;;;;;13.08;45.52;102018.59;5069125;28;45521;-64
2022/03/22 04:24:08;;;;;;;;;20.67;19.67;;;;;13.08;46.12;102029.16;5066479;28;45592;-64
2022/03/22 04:26:38;;;;;;;;;24.00;21.00;;;;;13.04;45.93;102025.72;5056782;28;45449;-64
2022/03/22 04:34:33;;;;;;;;;26.00;23.00;;;;;13.03;45.81;102015.22;5056485;28;45457;-64
2022/03/22 04:37:00;;;;;;;;;26.25;24.00;;;;;13.00;45.68;102024.06;5056500;28;45426;-64
2022/03/22 04:39:28;;;;;;;;;22.75;22.75;;;;;12.99;45.68;102027.59;5062215;28;45418;-64
2022/03/22 04:41:53;;;;;;;;;27.33;24.67;;;;;12.98;45.80;102025.00;5056511;28;45534;-62
2022/03/22 04:44:19;;;;;;;;;25.00;24.00;;;;;12.94;45.87;102029.47;5065443;28;45524;-64
2022/03/22 04:46:45;;;;;;;;;28.00;26.33;;;;;12.90;46.18;102033.09;5070075;27;45512;-63
2022/03/22 04:49:11;;;;;;;;;21.67;20.00;;;;;12.85;45.65;102027.03;5056332;28;45518;-64
2022/03/22 04:57:04;;;;;;;;;22.25;19.75;;;;;12.79;46.49;102043.03;5062315;28;45584;-64
2022/03/22 04:59:29;;;;;;;;;23.33;20.67;;;;;12.76;45.69;102043.06;5076625;27;45443;-65
2022/03/22 05:01:55;;;;;;;;;28.00;24.75;;;;;12.75;46.27;102047.50;5076176;28;46395;-64
2022/03/22 05:04:21;;;;;;;;;30.50;30.50;;;;;12.72;45.95;102049.34;5076341;27;45528;-63
2022/03/22 05:06:46;;;;;;;;;10.50;9.50;;;;;12.65;46.28;102038.00;5075232;28;45439;-64
2022/03/22 05:09:12;;;;;;;;;23.50;22.00;;;;;12.70;45.98;102056.41;5075688;27;45624;-64
2022/03/22 05:11:38;;;;;;;;;21.00;20.75;;;;;12.67;46.27;102053.84;5073432;27;46297;-64
2022/03/22 05:14:04;;;;;;;;;25.25;22.00;;;;;12.67;46.46;102038.00;5069610;28;45439;-63
2022/03/22 05:16:30;;;;;;;;;27.33;24.33;;;;;12.65;46.58;102059.13;5067085;28;45367;-63
2022/03/22 05:18:56;;;;;;;;;23.00;22.00;;;;;12.64;46.61;102049.50;5076187;28;45480;-63
2022/03/22 05:21:22;;;;;;;;;26.75;23.75;;;;;12.59;46.39;102051.34;5065682;27;45480;-64
2022/03/22 05:23:47;;;;;;;;;26.25;21.50;;;;;12.56;46.61;102059.34;5064448;28;45371;-64
2022/03/22 05:26:13;;;;;;;;;21.00;21.00;;;;;12.54;46.28;102059.34;5076311;28;45432;-64
2022/03/22 05:28:40;;;;;;;;;22.50;20.50;;;;;12.51;46.39;102055.91;5076458;27;45559;-64
2022/03/22 05:31:08;;;;;;;;;29.00;27.50;;;;;12.48;46.33;102058.63;5068595;28;45481;-63
2022/03/22 05:33:33;;;;;;;;;25.00;22.75;;;;;12.47;46.18;102063.03;5055723;28;45390;-64
2022/03/22 05:35:59;;;;;;;;;23.75;21.25;;;;;12.45;47.20;102066.59;5055832;28;45389;-64
2022/03/22 05:38:25;;;;;;;;;23.75;23.75;;;;;12.42;47.07;102070.16;5056023;28;45370;-64
2022/03/22 05:40:54;;;;;;;;;25.75;22.75;;;;;12.40;46.96;102065.81;5072305;28;46047;-63
2022/03/22 05:43:20;;;;;;;;;23.25;23.25;;;;;12.35;46.71;102069.41;5068631;27;45413;-64
2022/03/22 05:45:49;;;;;;;;;20.25;20.25;;;;;12.34;46.50;102069.44;5055937;28;45424;-64
2022/03/22 05:48:18;;;;;;;;;26.00;22.50;;;;;12.31;47.46;102072.16;5065286;28;45367;-64
2022/03/22 05:50:44;;;;;;;;;29.50;25.25;;;;;12.24;47.31;102086.34;5077576;28;46226;-63
2022/03/22 05:53:12;;;;;;;;;28.00;25.75;;;;;12.19;47.70;102078.50;5077524;27;45559;-63
2022/03/22 05:55:39;;;;;;;;;19.75;19.50;;;;;12.18;47.77;102086.47;5078614;28;45473;-63
2022/03/22 05:58:05;;;;;;;;;23.75;23.75;;;;;12.19;46.90;102077.63;5059213;27;45479;-65
2022/03/22 06:00:31;;;;;;;;;26.50;26.00;;;;;12.19;47.16;102088.19;5059867;28;46274;-63
2022/03/22 06:02:56;;;;;;;;;27.00;26.00;;;;;12.21;46.94;102091.66;5066537;28;45426;-64
2022/03/22 06:05:22;;;;;;;;;23.25;23.25;;;;;12.13;46.92;102089.16;5065353;28;45500;-63
2022/03/22 06:07:47;;;;;;;;;30.00;27.25;;;;;12.06;47.40;102084.88;5059251;28;45641;-63
2022/03/22 06:10:13;;;;;;;;;31.00;28.25;;;;;12.08;47.12;102101.56;5058705;28;45348;-63
2022/03/22 06:12:41;;;;;;;;;30.50;28.00;;;;;12.07;47.65;102105.09;5058894;28;45434;-64
2022/03/22 06:15:21;;;;;;;;;22.75;21.75;;;;;12.09;47.76;102101.56;5058081;28;45379;-64
2022/03/22 06:17:56;;;;;;;;;25.50;24.50;;;;;12.13;47.11;102102.34;5070717;28;45487;-64
2022/03/22 06:20:23;;;;;;;;;27.25;25.75;;;;;12.16;47.36;102113.72;5066935;27;45384;-64
2022/03/22 06:22:49;;;;;;;;;32.50;28.00;;;;;12.18;46.90;102118.97;5066202;28;45462;-63
2022/03/22 06:25:15;;;;;;;;;26.50;25.75;;;;;12.21;46.80;102120.69;5073619;28;45445;-64
2022/03/22 06:27:41;;;;;;;;;26.75;24.75;;;;;12.21;46.51;102123.31;5058829;28;45579;-63
2022/03/22 06:30:09;;;;;;;;;30.75;29.00;;;;;12.17;47.08;102125.16;5058513;28;46564;-64
2022/03/22 06:32:40;;;;;;;;;29.75;26.25;;;;;12.09;47.14;102124.38;5058531;28;45567;-63
2022/03/22 06:35:05;;;;;;;;;28.00;26.25;;;;;12.12;47.20;102132.28;5059080;27;45579;-63
2022/03/22 06:37:31;;;;;;;;;31.50;28.50;;;;;12.13;47.03;102121.69;5062039;28;45539;-64
2022/03/22 06:39:56;;;;;;;;;28.25;27.50;;;;;12.16;47.36;102120.75;5063466;28;45465;-64
2022/03/22 06:42:22;;;;;;;;;30.50;27.25;;;;;12.17;47.32;102127.78;5058550;28;47189;-64
2022/03/22 06:44:47;;;;;;;;;24.75;24.25;;;;;12.16;46.96;102133.94;5063317;28;45536;-63
2022/03/22 06:47:12;;;;;;;;;26.50;26.25;;;;;12.01;47.17;102131.56;5058581;28;45457;-63
2022/03/22 06:49:38;;;;;;;;;30.00;29.00;;;;;11.99;46.62;102126.34;5057951;28;45528;-64
2022/03/22 06:52:03;;;;;;;;;32.00;27.75;;;;;12.06;47.27;102135.88;5063115;28;45614;-64
2022/03/22 06:54:29;;;;;;;;;28.50;27.00;;;;;12.08;46.67;102138.47;5078361;28;45409;-64
2022/03/22 06:56:55;;;;;;;;;30.25;27.25;;;;;12.13;46.70;102141.91;5065075;28;45638;-64
2022/03/22 06:59:20;;;;;;;;;36.50;31.00;;;;;12.15;47.10;102143.63;5057737;28;46181;-64
2022/03/22 07:01:45;;;;;;;;;33.50;30.00;;;;;12.18;46.53;102145.34;5058838;27;45347;-65
2022/03/22 07:04:11;;;;;;;;;27.00;26.00;;;;;12.20;45.81;102147.94;5071051;27;45434;-63
2022/03/22 07:06:36;;;;;;;;;29.50;26.75;;;;;12.21;46.86;102144.44;5075311;28;45499;-64
2022/03/22 07:09:02;;;;;;;;;31.00;28.25;;;;;12.19;45.74;102138.31;5077134;28;45499;-65
2022/03/22 07:14:11;;;;;;;;;31.00;29.00;;;;;12.23;46.34;102145.28;5062262;28;45403;-64
2022/03/22 07:16:36;;;;;;;;;28.50;25.00;;;;;12.17;45.72;102135.72;5057404;28;49702;-64
2022/03/22 07:19:02;;;;;;;;;34.00;33.25;;;;;12.20;45.81;102148.84;5071285;28;46958;-65
2022/03/22 07:21:29;;;;;;;;;34.00;30.25;;;;;12.21;45.29;102142.66;5067112;27;45498;-64
2022/03/22 07:23:55;;;;;;;;;30.25;26.50;;;;;12.12;45.42;102145.47;5064815;28;45509;-64
2022/03/22 07:26:20;;;;;;;;;32.50;28.75;;;;;12.15;46.33;102151.53;5077907;27;45569;-63
2022/03/22 07:28:46;;;;;;;;;26.50;26.25;;;;;12.18;46.18;102149.75;5066571;28;46055;-64
2022/03/22 07:31:11;;;;;;;;;33.25;31.00;;;;;12.22;45.74;102160.22;5070178;27;45421;-64
2022/03/22 07:33:37;;;;;;;;;28.50;28.00;;;;;12.24;45.59;102158.41;5064148;28;45437;-64
2022/03/22 07:36:03;;;;;;;;;37.00;33.50;;;;;12.27;45.17;102155.72;5058266;28;45429;-64
2022/03/22 07:38:28;;;;;;;;;32.75;31.00;;;;;12.29;45.24;102164.50;5057512;27;46206;-63
2022/03/22 07:40:54;;;;;;;;;32.25;31.25;;;;;12.30;45.03;102163.59;5057457;28;45484;-63
2022/03/22 07:43:19;;;;;;;;;27.50;26.25;;;;;12.31;44.66;102159.19;5063405;28;45969;-63
2022/03/22 07:45:44;;;;;;;;;29.75;29.75;;;;;12.33;45.23;102165.31;5057640;27;45445;-63
2022/03/22 07:48:10;;;;;;;;;30.00;26.25;;;;;12.37;44.81;102161.72;5066402;28;46535;-64
2022/03/22 07:53:19;;;;;;;;;30.25;27.25;;;;;12.43;45.55;102171.28;5075616;28;45616;-64
2022/03/22 07:55:45;;;;;;;;;40.00;34.50;;;;;12.39;44.20;102167.84;5067980;27;45381;-64
2022/03/22 07:58:11;;;;;;;;;33.25;32.50;;;;;12.42;43.81;102173.06;5058825;28;46452;-63
2022/03/22 08:00:40;;;;;;;;;29.00;27.00;;;;;12.43;45.01;102169.53;5072701;28;45457;-63
2022/03/22 08:03:12;;;;;;;;;32.25;29.75;;;;;12.45;44.75;102167.72;5075826;28;45536;-64
2022/03/22 08:05:39;;;;;;;;;40.00;34.75;;;;;12.48;45.05;102172.94;5057674;27;45453;-65
2022/03/22 08:08:05;;;;;;;;;39.00;34.25;;;;;12.50;45.08;102162.38;5059964;28;46263;-63
2022/03/22 08:10:31;;;;;;;;;33.50;32.00;;;;;12.54;44.20;102158.78;5056394;28;45484;-64
2022/03/22 08:12:59;;;;;;;;;35.00;31.25;;;;;12.58;44.68;102165.75;5057496;28;45402;-65
2022/03/22 08:15:24;;;;;;;;;28.50;28.50;;;;;12.62;44.51;102164.78;5057327;28;45307;-65
2022/03/22 08:17:50;;;;;;;;;29.00;28.75;;;;;12.68;44.24;102163.78;5058137;28;46299;-64
2022/03/22 08:20:15;;;;;;;;;35.75;34.00;;;;;12.72;43.93;102168.13;5058056;28;45433;-64
2022/03/22 08:22:55;;;;;;;;;36.25;33.75;;;;;12.75;44.72;102168.94;5064982;28;45450;-64
2022/03/22 08:25:28;;;;;;;;;39.50;36.00;;;;;12.77;43.93;102171.56;5057547;28;45447;-65
2022/03/22 08:27:56;;;;;;;;;33.75;31.50;;;;;12.80;43.88;102167.06;5062005;28;45545;-64
2022/03/22 08:30:22;;;;;;;;;34.75;34.00;;;;;12.81;42.87;102163.56;5057121;28;45619;-65
2022/03/22 08:32:52;;;;;;;;;31.00;30.00;;;;;12.83;42.52;102164.38;5057091;28;45489;-64
2022/03/22 08:35:18;;;;;;;;;28.00;27.75;;;;;12.86;41.98;102171.34;5057402;28;45507;-65
2022/03/22 08:37:44;;;;;;;;;29.75;29.25;;;;;12.88;40.93;102166.94;5059834;28;46006;-64
2022/03/22 08:40:10;;;;;;;;;25.50;23.75;;;;;12.81;37.87;102163.56;5060716;27;45809;-64
2022/03/22 08:42:37;;;;;;;;;30.00;28.25;;;;;12.80;38.06;102172.34;5071004;28;45563;-65
2022/03/22 08:45:06;;;;;;;;;28.00;26.00;;;;;12.83;36.44;102174.06;5072382;27;45444;-65
2022/03/22 08:47:34;;;;;;;;;29.00;24.75;;;;;12.77;36.71;102174.19;5057458;27;46144;-65
2022/03/22 08:50:00;;;;;;;;;24.00;22.25;;;;;12.77;36.23;102171.56;5058737;28;45599;-63
2022/03/22 08:52:25;;;;;;;;;26.25;24.75;;;;;12.81;35.04;102173.22;5056244;28;45485;-63
2022/03/22 08:54:51;;;;;;;;;27.00;25.25;;;;;12.85;36.30;102174.91;5060452;28;45416;-64
2022/03/22 08:57:17;;;;;;;;;21.00;21.00;;;;;12.93;35.71;102165.06;5066270;28;46221;-65
2022/03/22 08:59:43;;;;;;;;;23.33;23.33;;;;;12.95;34.89;102160.63;5061618;28;45544;-65
2022/03/22 09:02:09;;;;;;;;;20.00;20.00;;;;;12.99;31.61;102162.28;5074699;27;45621;-65
2022/03/22 09:07:18;;;;;;;;;20.33;17.67;;;;;13.12;31.08;102167.34;5071739;28;45427;-63
2022/03/22 09:09:43;;;;;;;;;15.33;13.00;;;;;13.14;29.52;102169.06;5060841;28;45535;-64
2022/03/22 09:12:09;;;;;;;;;14.67;14.33;;;;;13.14;29.36;102168.19;5081898;27;45656;-63
2022/03/22 09:14:34;;;;;;;;;22.00;19.67;;;;;13.15;27.87;102175.19;5056228;28;45375;-64
2022/03/22 09:17:00;;;;;;;;;17.67;16.00;;;;;13.21;30.19;102181.19;5066002;28;45552;-65
2022/03/22 09:19:25;;;;;;;;;18.67;17.33;;;;;13.29;28.31;102181.09;5063873;27;45537;-64
2022/03/22 09:21:50;;;;;;;;;22.33;17.67;;;;;13.32;29.00;102173.09;5068471;28;45389;-64
2022/03/22 09:24:16;;;;;;;;;17.33;16.67;;;;;13.41;30.38;102170.25;5074566;28;45401;-65
2022/03/22 09:26:41;;;;;;;;;14.33;14.33;;;;;13.49;29.36;102172.75;5056881;27;45383;-64
2022/03/22 09:29:07;;;;;;;;;22.00;20.33;;;;;13.54;30.85;102170.88;5062440;27;45512;-64
2022/03/22 09:31:34;;;;;;;;;19.00;17.67;;;;;13.59;29.09;102170.75;5064379;28;45399;-63
2022/03/22 09:34:00;;;;;;;;;15.67;15.67;;;;;13.60;29.36;102180.44;5071530;27;45734;-63
2022/03/22 09:36:25;;;;;;;;;19.00;17.33;;;;;13.61;29.53;102176.88;5059485;27;47025;-63
2022/03/22 09:38:51;;;;;;;;;17.33;15.67;;;;;13.68;29.64;102167.91;5058263;28;45518;-63
2022/03/22 09:41:16;;;;;;;;;12.00;12.00;;;;;13.70;28.37;102174.00;5063611;28;45378;-64
2022/03/22 09:43:48;;;;;;;;;17.00;17.00;;;;;13.76;29.53;102181.81;5056755;28;45692;-64
2022/03/22 09:46:19;;;;;;;;;16.33;16.33;;;;;13.79;29.12;102165.88;5067546;28;45537;-64
2022/03/22 09:48:45;;;;;;;;;13.00;12.00;;;;;13.86;30.01;102175.41;5074016;28;45405;-64
2022/03/22 09:53:55;;;;;;;;;18.33;18.33;;;;;13.88;29.65;102168.28;5057209;28;45375;-65
2022/03/22 09:56:21;;;;;;;;;24.33;20.33;;;;;13.97;29.01;102171.59;5055643;28;46126;-64
2022/03/22 09:58:48;;;;;;;;;18.00;16.67;;;;;13.98;27.56;102160.16;5055680;28;45463;-65
2022/03/22 10:01:13;;;;;;;;;15.67;15.67;;;;;13.97;27.86;102172.50;5061465;28;45288;-64
2022/03/22 10:03:39;;;;;;;;;12.33;12.00;;;;;13.95;27.05;102182.25;5064426;28;45552;-63
2022/03/22 10:06:07;;;;;;;;;20.33;18.67;;;;;13.91;26.80;102154.97;5068092;28;45643;-65
2022/03/22 10:08:36;;;;;;;;;17.00;17.00;;;;;14.00;28.14;102163.63;5062293;28;45470;-64
2022/03/22 10:11:01;;;;;;;;;21.00;18.33;;;;;14.13;28.61;102170.31;5055177;28;45494;-65
2022/03/22 10:13:28;;;;;;;;;16.33;16.00;;;;;14.33;27.37;102162.75;5055112;28;45528;-64
2022/03/22 10:16:01;;;;;;;;;14.33;14.33;;;;;14.60;28.35;102160.31;5077384;27;47118;-64
2022/03/22 10:18:27;;;;;;;;;20.00;16.67;;;;;14.85;27.56;102162.28;5055055;28;45372;-64
2022/03/22 10:21:02;;;;;;;;;16.33;16.33;;;;;14.97;28.38;102157.53;5063907;28;45440;-64
2022/03/22 10:23:30;;;;;;;;;18.33;17.67;;;;;15.13;28.85;102154.44;5071388;28;45476;-64
2022/03/22 10:26:07;;;;;;;;;20.00;20.00;;;;;15.18;28.59;102156.03;5063932;28;45564;-65
2022/03/22 10:28:34;;;;;;;;;21.00;18.33;;;;;15.15;26.97;102148.19;5054870;28;45472;-64
2022/03/22 10:30:59;;;;;;;;;18.33;16.67;;;;;15.21;27.59;102149.78;5061711;28;45448;-65
2022/03/22 10:33:25;;;;;;;;;15.00;14.00;;;;;15.30;27.37;102154.78;5072085;27;45405;-64
2022/03/22 10:35:50;;;;;;;;;18.33;17.33;;;;;15.34;27.61;102153.78;5064265;27;45575;-65
2022/03/22 10:38:19;;;;;;;;;19.33;16.00;;;;;15.31;26.80;102153.84;5069096;28;45455;-64
2022/03/22 10:40:46;;;;;;;;;21.00;21.00;;;;;15.24;26.52;102142.59;5077088;28;45378;-64
2022/03/22 10:43:16;;;;;;;;;15.67;15.33;;;;;15.18;26.50;102144.56;5074615;27;45393;-63
2022/03/22 10:45:52;;;;;;;;;17.67;16.67;;;;;15.13;26.45;102144.69;5062346;27;45475;-64
2022/03/22 10:48:27;;;;;;;;;16.67;16.67;;;;;15.05;24.80;102136.09;5076160;27;45430;-64
2022/03/22 10:50:55;;;;;;;;;20.67;18.33;;;;;15.05;25.51;102140.53;5075641;27;45421;-64
2022/03/22 10:53:23;;;;;;;;;24.33;24.33;;;;;15.07;26.99;102136.94;5063808;27;45468;-63
2022/03/22 10:55:49;;;;;;;;;17.00;16.00;;;;;15.09;26.84;102136.88;5060511;28;46505;-63
2022/03/22 10:58:19;;;;;;;;;18.00;17.00;;;;;15.10;27.31;102138.59;5074810;28;45328;-66
2022/03/22 11:00:46;;;;;;;;;18.00;18.00;;;;;15.11;26.88;102137.69;5072860;28;45510;-63
2022/03/22 11:03:13;;;;;;;;;18.67;18.67;;;;;15.10;26.77;102134.19;5063130;28;45509;-64
2022/03/22 11:05:46;;;;;;;;;20.67;19.67;;;;;15.10;27.08;102125.34;5075614;28;46156;-63
2022/03/22 11:08:11;;;;;;;;;23.00;21.67;;;;;15.11;27.20;102127.97;5076120;28;45473;-63
2022/03/22 11:10:37;;;;;;;;;18.00;18.00;;;;;15.11;27.26;102125.31;5068771;27;45532;-64
2022/03/22 11:13:03;;;;;;;;;19.33;17.67;;;;;15.11;26.76;102114.72;5073317;28;45438;-64
2022/03/22 11:15:32;;;;;;;;;15.00;15.00;;;;;15.13;26.86;102123.50;5069493;27;46335;-63
2022/03/22 11:17:58;;;;;;;;;18.33;15.00;;;;;15.17;27.17;102121.59;5071834;27;45444;-64
2022/03/22 11:20:25;;;;;;;;;37.25;34.75;;;;;15.17;26.62;102113.66;5063468;28;45375;-64
2022/03/22 11:22:56;;;;;;;;;15.33;15.33;;;;;15.22;27.73;102115.25;5069214;27;45575;-64
2022/03/22 11:25:36;;;;;;;;;18.33;17.33;;;;;15.24;26.92;102121.38;5067440;27;46282;-64
2022/03/22 11:28:06;;;;;;;;;19.00;19.00;;;;;15.27;26.59;102103.66;5070800;28;45599;-63
2022/03/22 11:30:34;;;;;;;;;18.33;17.00;;;;;15.34;24.56;102107.84;5064542;28;45484;-64
2022/03/22 11:35:49;;;;;;;;;18.33;16.00;;;;;15.46;26.33;102094.19;5068489;28;45536;-65
2022/03/22 11:38:35;;;;;;;;;20.33;18.67;;;;;15.51;25.03;102094.06;5077641;27;45367;-64
2022/03/22 11:43:46;;;;;;;;;11.33;11.33;;;;;15.57;26.26;102100.03;5075534;28;45404;-63